createdAt,value
2023-05-24T00:00:42.176Z,58.09
2023-05-24T00:03:46.983Z,58.12
2023-05-24T00:06:49.467Z,58.16
2023-05-24T00:09:51.695Z,58.25
2023-05-24T00:12:53.932Z,58.57
2023-05-24T00:15:56.266Z,58.63
2023-05-24T00:18:59.325Z,58.85
2023-05-24T00:22:01.577Z,58.69
2023-05-24T00:25:04.871Z,58.59
2023-05-24T00:28:07.124Z,58.60
2023-05-24T00:31:09.405Z,58.69
2023-05-24T00:34:11.737Z,58.68
2023-05-24T00:37:14.017Z,58.37
2023-05-24T00:40:17.944Z,58.87
2023-05-24T00:43:20.176Z,58.18
2023-05-24T00:46:31.892Z,58.46
2023-05-24T00:49:34.936Z,58.71
2023-05-24T00:52:37.405Z,58.97
2023-05-24T00:55:40.054Z,59.04
2023-05-24T00:58:42.517Z,59.38
2023-05-24T01:01:47.339Z,59.29
2023-05-24T01:04:49.761Z,59.26
2023-05-24T01:08:23.421Z,59.57
2023-05-24T01:11:44.100Z,59.63
2023-05-24T01:15:12.442Z,59.42
2023-05-24T01:18:44.607Z,59.52
2023-05-24T01:22:12.000Z,59.80
2023-05-24T01:25:39.101Z,60.22
2023-05-24T01:28:45.400Z,60.09
2023-05-24T01:31:48.996Z,59.72
2023-05-24T01:34:53.598Z,59.57
2023-05-24T01:37:55.839Z,59.97
2023-05-24T01:41:02.179Z,60.14
2023-05-24T01:44:14.063Z,60.40
2023-05-24T01:47:28.416Z,61.06
2023-05-24T01:50:37.387Z,61.66
2023-05-24T01:53:47.561Z,61.96
2023-05-24T01:56:53.116Z,62.48
2023-05-24T01:59:56.250Z,62.02
2023-05-24T02:02:59.810Z,61.82
2023-05-24T02:06:02.166Z,61.56
2023-05-24T02:09:04.424Z,62.87
2023-05-24T02:12:07.387Z,62.76
2023-05-24T02:15:10.647Z,62.75
2023-05-24T02:18:13.119Z,63.66
2023-05-24T02:21:15.609Z,64.10
2023-05-24T02:24:18.919Z,63.64
2023-05-24T02:27:21.495Z,63.67
2023-05-24T02:30:23.919Z,63.14
2023-05-24T02:33:26.406Z,62.88
2023-05-24T02:36:28.998Z,62.94
2023-05-24T02:39:31.360Z,62.31
2023-05-24T02:42:34.104Z,62.82
2023-05-24T02:45:37.708Z,62.46
2023-05-24T02:48:40.170Z,62.63
2023-05-24T02:51:42.426Z,62.24
2023-05-24T02:54:44.732Z,62.13
2023-05-24T02:57:48.202Z,62.25
2023-05-24T03:00:50.846Z,62.02
2023-05-24T03:03:55.725Z,62.44
2023-05-24T03:06:58.027Z,62.29
2023-05-24T03:10:00.402Z,62.23
2023-05-24T03:13:02.823Z,62.58
2023-05-24T03:16:05.815Z,62.75
2023-05-24T03:19:10.064Z,62.76
2023-05-24T03:22:13.308Z,63.32
2023-05-24T03:25:15.612Z,62.44
2023-05-24T03:28:19.112Z,62.51
2023-05-24T03:31:24.212Z,62.26
2023-05-24T03:34:26.911Z,61.95
2023-05-24T03:37:29.758Z,61.90
2023-05-24T03:40:33.807Z,61.62
2023-05-24T03:43:54.660Z,62.39
2023-05-24T03:46:57.084Z,62.17
2023-05-24T03:49:59.785Z,61.92
2023-05-24T03:53:02.088Z,61.82
2023-05-24T03:56:04.436Z,61.46
2023-05-24T03:59:06.978Z,61.54
2023-05-24T04:02:09.466Z,61.06
2023-05-24T04:05:13.523Z,60.95
2023-05-24T04:08:16.550Z,62.31
2023-05-24T04:11:19.879Z,61.67
2023-05-24T04:14:22.200Z,61.70
2023-05-24T04:17:24.892Z,61.99
2023-05-24T04:20:29.083Z,61.92
2023-05-24T04:23:31.369Z,61.60
2023-05-24T04:26:34.764Z,61.42
2023-05-24T04:29:39.062Z,61.79
2023-05-24T04:32:41.611Z,61.54
2023-05-24T04:35:44.449Z,61.47
2023-05-24T04:38:47.311Z,61.29
2023-05-24T04:41:51.753Z,61.25
2023-05-24T04:44:53.961Z,61.27
2023-05-24T04:47:57.259Z,60.52
2023-05-24T04:50:59.558Z,60.45
2023-05-24T04:54:08.644Z,60.25
2023-05-24T04:57:11.087Z,60.11
2023-05-24T05:00:13.878Z,60.29
2023-05-24T05:03:16.450Z,60.13
2023-05-24T05:06:18.760Z,60.09
2023-05-24T05:09:21.306Z,60.59
2023-05-24T05:12:23.462Z,60.08
2023-05-24T05:15:25.764Z,59.99
2023-05-24T05:18:28.156Z,59.76
2023-05-24T05:21:33.078Z,59.68
2023-05-24T05:24:35.362Z,59.27
2023-05-24T05:27:37.636Z,59.17
2023-05-24T05:30:39.977Z,59.19
2023-05-24T05:33:42.431Z,59.29
2023-05-24T05:36:44.727Z,58.44
2023-05-24T05:39:47.066Z,57.07
2023-05-24T05:42:50.081Z,56.44
2023-05-24T05:45:52.464Z,55.29
2023-05-24T05:48:54.748Z,54.62
2023-05-24T05:51:57.027Z,54.17
2023-05-24T05:55:00.369Z,53.23
2023-05-24T05:58:02.726Z,52.44
2023-05-24T06:01:05.249Z,51.49
2023-05-24T06:04:07.990Z,50.64
2023-05-24T06:07:10.305Z,49.95
2023-05-24T06:10:12.686Z,49.12
2023-05-24T06:13:14.993Z,49.22
2023-05-24T06:16:18.357Z,49.21
2023-05-24T06:19:21.132Z,49.32
2023-05-24T06:22:23.415Z,49.11
2023-05-24T06:25:27.518Z,48.59
2023-05-24T06:28:29.876Z,48.29
2023-05-24T06:31:33.024Z,48.73
2023-05-24T06:34:35.414Z,48.11
2023-05-24T06:37:38.707Z,48.59
2023-05-24T06:40:41.827Z,47.14
2023-05-24T06:43:44.393Z,46.38
2023-05-24T06:46:47.520Z,46.26
2023-05-24T06:49:50.103Z,38.48
2023-05-24T06:52:52.442Z,33.85
2023-05-24T06:55:56.914Z,29.74
2023-05-24T06:59:00.109Z,27.98
2023-05-24T07:02:03.889Z,27.08
2023-05-24T07:05:12.210Z,26.42
2023-05-24T07:08:14.597Z,25.79
2023-05-24T07:11:16.835Z,24.40
2023-05-24T07:14:19.123Z,24.67
2023-05-24T07:17:21.531Z,24.92
2023-05-24T07:20:23.916Z,25.27
2023-05-24T07:23:26.212Z,27.42
2023-05-24T07:26:28.506Z,29.90
2023-05-24T07:29:30.956Z,32.00
2023-05-24T07:32:34.194Z,33.49
2023-05-24T07:35:36.556Z,33.86
2023-05-24T07:38:39.209Z,33.91
2023-05-24T07:41:41.897Z,33.28
2023-05-24T07:44:44.211Z,30.92
2023-05-24T07:47:46.595Z,30.56
2023-05-24T07:50:50.151Z,29.19
2023-05-24T07:53:52.746Z,29.97
2023-05-24T07:56:55.229Z,30.09
2023-05-24T07:59:57.504Z,30.86
2023-05-24T08:03:00.374Z,31.52
2023-05-24T08:06:02.863Z,30.65
2023-05-24T08:09:05.553Z,29.02
2023-05-24T08:12:08.280Z,29.20
2023-05-24T08:15:11.105Z,29.51
2023-05-24T08:18:13.513Z,29.50
2023-05-24T08:21:16.542Z,30.42
2023-05-24T08:24:19.646Z,31.88
2023-05-24T08:27:22.632Z,32.96
2023-05-24T08:30:25.071Z,32.49
2023-05-24T08:33:27.396Z,32.82
2023-05-24T08:36:29.513Z,33.56
2023-05-24T08:39:31.785Z,33.92
2023-05-24T08:42:34.233Z,33.73
2023-05-24T08:45:37.004Z,34.06
2023-05-24T08:48:45.789Z,34.10
2023-05-24T08:51:48.622Z,33.90
2023-05-24T08:54:51.711Z,35.04
2023-05-24T08:57:56.450Z,34.53
2023-05-24T09:00:59.253Z,34.81
2023-05-24T09:04:02.585Z,35.32
2023-05-24T09:07:06.329Z,35.65
2023-05-24T09:10:09.807Z,36.37
2023-05-24T09:13:12.325Z,36.13
2023-05-24T09:16:15.996Z,36.29
2023-05-24T09:19:19.805Z,35.90
2023-05-24T09:22:25.979Z,36.22
2023-05-24T09:25:32.347Z,35.97
2023-05-24T09:28:34.663Z,36.98
2023-05-24T09:31:37.336Z,37.10
2023-05-24T09:34:41.558Z,37.68
2023-05-24T09:37:49.477Z,38.20
2023-05-24T09:40:59.399Z,37.91
2023-05-24T09:44:03.353Z,38.25
2023-05-24T09:47:05.838Z,37.69
2023-05-24T09:50:17.896Z,39.06
2023-05-24T09:53:22.428Z,39.43
2023-05-24T09:56:24.856Z,39.08
2023-05-24T09:59:27.939Z,39.13
2023-05-24T10:02:38.215Z,39.07
2023-05-24T10:05:45.555Z,39.07
2023-05-24T10:08:51.899Z,38.43
2023-05-24T10:11:54.146Z,38.47
2023-05-24T10:14:57.605Z,38.34
2023-05-24T10:18:02.095Z,38.82
2023-05-24T10:21:09.791Z,38.26
2023-05-24T10:24:14.149Z,38.65
2023-05-24T10:27:24.226Z,39.18
2023-05-24T10:30:42.816Z,39.32
2023-05-24T10:33:46.542Z,38.78
2023-05-24T10:36:48.923Z,38.68
2023-05-24T10:39:51.035Z,39.35
2023-05-24T10:42:54.822Z,39.09
2023-05-24T10:45:57.364Z,39.02
2023-05-24T10:49:01.153Z,37.89
2023-05-24T10:52:10.703Z,38.55
2023-05-24T10:55:13.298Z,39.37
2023-05-24T10:58:15.727Z,39.58
2023-05-24T11:01:27.187Z,39.42
2023-05-24T11:04:34.281Z,39.79
2023-05-24T11:07:42.943Z,39.61
2023-05-24T11:10:45.301Z,39.68
2023-05-24T11:13:47.808Z,37.94
2023-05-24T11:16:51.967Z,38.29
2023-05-24T11:19:55.360Z,39.10
2023-05-24T11:22:59.793Z,39.42
2023-05-24T11:26:03.595Z,39.83
2023-05-24T11:29:06.261Z,39.08
2023-05-24T11:32:09.164Z,39.26
2023-05-24T11:35:11.718Z,39.88
2023-05-24T11:38:15.560Z,38.39
2023-05-24T11:41:18.109Z,39.10
2023-05-24T11:44:20.627Z,40.78
2023-05-24T11:47:23.593Z,41.07
2023-05-24T11:50:28.500Z,40.26
2023-05-24T11:53:30.995Z,40.33
2023-05-24T11:56:34.133Z,39.29
2023-05-24T11:59:38.041Z,39.92
2023-05-24T12:02:40.742Z,39.95
2023-05-24T12:05:43.796Z,40.05
2023-05-24T12:08:46.590Z,39.74
2023-05-24T12:11:50.658Z,39.58
2023-05-24T12:14:55.794Z,39.70
2023-05-24T12:17:58.841Z,39.11
2023-05-24T12:21:01.244Z,39.55
2023-05-24T12:24:12.913Z,39.20
2023-05-24T12:27:15.129Z,39.45
2023-05-24T12:30:21.411Z,39.24
2023-05-24T12:33:24.421Z,38.93
2023-05-24T12:36:28.699Z,39.44
2023-05-24T12:39:37.446Z,39.19
2023-05-24T12:42:39.702Z,38.73
2023-05-24T12:45:43.158Z,39.04
2023-05-24T12:48:45.587Z,39.32
2023-05-24T12:51:49.412Z,39.19
2023-05-24T12:54:51.795Z,39.39
2023-05-24T12:57:56.034Z,39.53
2023-05-24T13:00:58.392Z,39.39
2023-05-24T13:04:00.694Z,39.13
2023-05-24T13:07:03.307Z,39.57
2023-05-24T13:10:08.884Z,39.56
2023-05-24T13:13:11.226Z,39.73
2023-05-24T13:16:13.530Z,39.72
2023-05-24T13:19:16.651Z,39.95
2023-05-24T13:22:19.972Z,40.28
2023-05-24T13:25:22.708Z,40.22
2023-05-24T13:28:25.440Z,39.91
2023-05-24T13:31:27.841Z,40.23
2023-05-24T13:34:30.015Z,40.18
2023-05-24T13:37:32.308Z,39.93
2023-05-24T13:40:34.566Z,40.76
2023-05-24T13:43:36.738Z,40.12
2023-05-24T13:46:40.284Z,39.88
2023-05-24T13:49:43.028Z,39.73
2023-05-24T13:52:45.754Z,39.97
2023-05-24T13:55:48.694Z,40.32
2023-05-24T13:58:52.261Z,40.29
2023-05-24T14:01:54.842Z,39.54
2023-05-24T14:05:05.983Z,39.98
2023-05-24T14:08:19.253Z,40.19
2023-05-24T14:11:22.491Z,39.47
2023-05-24T14:17:29.957Z,40.31
2023-05-24T14:20:32.831Z,39.97
2023-05-24T14:23:35.202Z,40.46
2023-05-24T14:26:37.541Z,40.93
2023-05-24T14:29:39.855Z,40.82
2023-05-24T14:32:42.167Z,40.48
2023-05-24T14:35:44.766Z,41.05
2023-05-24T14:38:47.357Z,41.00
2023-05-24T14:41:49.795Z,40.61
2023-05-24T14:44:51.944Z,41.27
2023-05-24T14:47:54.145Z,41.21
2023-05-24T14:50:56.615Z,41.50
2023-05-24T14:53:58.825Z,41.34
2023-05-24T14:57:01.034Z,41.38
2023-05-24T15:00:04.097Z,40.90
2023-05-24T15:03:08.034Z,40.76
2023-05-24T15:06:10.668Z,40.56
2023-05-24T15:09:13.478Z,40.00
2023-05-24T15:12:15.911Z,40.95
2023-05-24T15:15:19.000Z,41.40
2023-05-24T15:18:21.297Z,40.92
2023-05-24T15:21:23.532Z,40.34
2023-05-24T15:24:25.870Z,40.87
2023-05-24T15:27:28.225Z,41.69
2023-05-24T15:30:30.604Z,41.10
2023-05-24T15:33:32.907Z,41.71
2023-05-24T15:36:36.410Z,41.38
2023-05-24T15:39:38.643Z,41.36
2023-05-24T15:42:41.019Z,41.33
2023-05-24T15:45:43.934Z,41.72
2023-05-24T15:48:46.208Z,41.68
2023-05-24T15:52:03.601Z,41.53
2023-05-24T15:55:07.655Z,42.29
2023-05-24T15:58:09.896Z,42.11
2023-05-24T16:01:12.223Z,42.12
2023-05-24T16:04:15.561Z,41.96
2023-05-24T16:07:19.554Z,42.12
2023-05-24T16:10:21.810Z,42.42
2023-05-24T16:13:24.326Z,41.94
2023-05-24T16:16:26.754Z,41.83
2023-05-24T16:19:28.968Z,42.08
2023-05-24T16:22:34.916Z,42.26
2023-05-24T16:25:37.191Z,42.24
2023-05-24T16:28:39.445Z,41.90
2023-05-24T16:31:41.756Z,42.42
2023-05-24T16:34:56.188Z,42.79
2023-05-24T16:37:59.738Z,43.38
2023-05-24T16:41:02.109Z,42.72
2023-05-24T16:44:04.760Z,42.93
2023-05-24T16:47:07.310Z,42.85
2023-05-24T16:50:15.091Z,42.11
2023-05-24T16:53:17.272Z,42.36
2023-05-24T16:56:19.455Z,41.79
2023-05-24T16:59:22.845Z,41.15
2023-05-24T17:02:25.227Z,41.58
2023-05-24T17:05:27.825Z,41.95
2023-05-24T17:08:30.198Z,41.91
2023-05-24T17:11:32.483Z,42.15
2023-05-24T17:14:34.886Z,42.34
2023-05-24T17:17:37.464Z,42.93
2023-05-24T17:20:40.367Z,43.03
2023-05-24T17:23:42.747Z,43.47
2023-05-24T17:26:45.413Z,44.33
2023-05-24T17:29:47.848Z,44.77
2023-05-24T17:32:50.141Z,45.14
2023-05-24T17:35:55.513Z,44.54
2023-05-24T17:38:59.579Z,45.63
2023-05-24T17:42:03.084Z,45.15
2023-05-24T17:45:10.354Z,45.83
2023-05-24T17:48:21.950Z,46.70
2023-05-24T17:51:29.898Z,46.46
2023-05-24T17:54:34.328Z,47.40
2023-05-24T17:57:36.725Z,47.41
2023-05-24T18:00:39.074Z,47.17
2023-05-24T18:03:42.663Z,47.66
2023-05-24T18:06:45.417Z,48.27
2023-05-24T18:09:47.703Z,48.27
2023-05-24T18:12:50.029Z,48.24
2023-05-24T18:15:52.428Z,48.62
2023-05-24T18:18:54.898Z,48.86
2023-05-24T18:21:58.034Z,48.93
2023-05-24T18:25:00.940Z,48.95
2023-05-24T18:28:03.301Z,48.74
2023-05-24T18:31:08.619Z,49.52
2023-05-24T18:34:11.100Z,49.42
2023-05-24T18:37:13.498Z,49.49
2023-05-24T18:40:16.749Z,50.76
2023-05-24T18:43:19.025Z,50.12
2023-05-24T18:46:21.355Z,50.22
2023-05-24T18:49:23.754Z,50.19
2023-05-24T18:52:26.980Z,50.04
2023-05-24T18:55:29.256Z,50.05
2023-05-24T18:58:31.671Z,50.31
2023-05-24T19:01:34.045Z,50.29
2023-05-24T19:04:36.336Z,50.22
2023-05-24T19:07:38.637Z,49.93
2023-05-24T19:10:41.358Z,50.31
2023-05-24T19:13:43.664Z,50.50
2023-05-24T19:16:47.099Z,50.36
2023-05-24T19:19:49.539Z,50.56
2023-05-24T19:22:54.783Z,50.25
2023-05-24T19:25:57.096Z,50.93
2023-05-24T19:29:00.551Z,50.46
2023-05-24T19:32:03.291Z,50.08
2023-05-24T19:35:06.418Z,50.63
2023-05-24T19:38:08.788Z,50.39
2023-05-24T19:41:11.246Z,50.85
2023-05-24T19:44:13.538Z,51.63
2023-05-24T19:47:15.939Z,51.27
2023-05-24T19:50:18.773Z,51.96
2023-05-24T19:53:21.049Z,51.88
2023-05-24T19:56:23.794Z,51.99
2023-05-24T19:59:26.024Z,52.06
2023-05-24T20:02:28.771Z,51.64
2023-05-24T20:05:31.143Z,51.23
2023-05-24T20:08:33.442Z,51.24
2023-05-24T20:11:35.845Z,51.73
2023-05-24T20:14:38.323Z,51.96
2023-05-24T20:17:41.411Z,51.91
2023-05-24T20:20:43.819Z,51.74
2023-05-24T20:23:46.107Z,52.02
2023-05-24T20:26:48.486Z,51.79
2023-05-24T20:29:51.069Z,51.96
2023-05-24T20:32:53.233Z,52.14
2023-05-24T20:35:55.647Z,52.37
2023-05-24T20:38:58.119Z,52.29
2023-05-24T20:42:00.897Z,52.71
2023-05-24T20:45:03.622Z,52.39
2023-05-24T20:48:06.354Z,52.68
2023-05-24T20:51:09.009Z,52.77
2023-05-24T20:54:13.301Z,52.71
2023-05-24T20:57:16.070Z,52.52
2023-05-24T21:00:18.958Z,52.76
2023-05-24T21:03:21.769Z,52.81
2023-05-24T21:06:25.046Z,53.18
2023-05-24T21:09:27.388Z,53.83
2023-05-24T21:12:32.457Z,53.37
2023-05-24T21:15:35.355Z,53.44
2023-05-24T21:18:37.641Z,53.41
2023-05-24T21:21:40.058Z,53.53
2023-05-24T21:24:42.317Z,53.48
2023-05-24T21:27:47.743Z,53.55
2023-05-24T21:30:50.080Z,54.09
2023-05-24T21:33:52.402Z,53.69
2023-05-24T21:36:54.877Z,54.28
2023-05-24T21:39:57.210Z,54.44
2023-05-24T21:42:59.534Z,54.61
2023-05-24T21:46:01.812Z,54.61
2023-05-24T21:49:04.248Z,54.79
2023-05-24T21:52:06.581Z,55.29
2023-05-24T21:55:08.944Z,55.30
2023-05-24T21:58:11.188Z,54.97
2023-05-24T22:01:13.528Z,55.05
2023-05-24T22:04:16.014Z,55.07
2023-05-24T22:07:18.361Z,55.27
2023-05-24T22:10:20.710Z,55.30
2023-05-24T22:13:23.420Z,55.35
2023-05-24T22:16:25.787Z,56.02
2023-05-24T22:19:39.852Z,56.00
2023-05-24T22:22:48.506Z,56.04
2023-05-24T22:25:50.896Z,56.54
2023-05-24T22:28:55.414Z,56.69
2023-05-24T22:31:57.782Z,56.91
2023-05-24T22:35:00.118Z,56.94
2023-05-24T22:38:02.379Z,57.03
2023-05-24T22:41:04.635Z,57.33
2023-05-24T22:44:06.918Z,57.33
2023-05-24T22:47:11.990Z,57.02
2023-05-24T22:50:14.620Z,57.53
2023-05-24T22:53:17.163Z,57.17
2023-05-24T22:56:19.501Z,57.58
2023-05-24T22:59:21.775Z,57.40
2023-05-24T23:02:24.208Z,57.55
2023-05-24T23:05:26.587Z,57.50
2023-05-24T23:08:28.834Z,57.75
2023-05-24T23:11:32.494Z,58.00
2023-05-24T23:14:39.422Z,57.62
2023-05-24T23:17:42.135Z,57.58
2023-05-24T23:20:44.591Z,57.48
2023-05-24T23:23:49.169Z,57.56
2023-05-24T23:26:51.486Z,57.45
2023-05-24T23:29:54.578Z,57.94
2023-05-24T23:32:57.103Z,57.71
2023-05-24T23:35:59.468Z,57.84
2023-05-24T23:39:01.742Z,57.87
2023-05-24T23:42:04.622Z,57.34
2023-05-24T23:45:07.265Z,57.75
2023-05-24T23:48:09.443Z,57.32
2023-05-24T23:51:11.974Z,57.77
2023-05-24T23:54:19.246Z,56.78
2023-05-24T23:57:21.637Z,56.90
